Thamesteel1 — V7OI7 — position and weather

sailwx.info

Track history (hours):
 
Tides and Currents Weather Stations Pressure Air Temp Water Temp Dewpoint Dewpoint Depression Visibility Wind Speed Wind Dir Waves Ship Positions

Thamesteel1

Last reported at 2017-Aug-20 15:32 UTC. Time now 2017-Aug-21 14:07 UTC.
Position N 31°04' E 122°05'.

Length 89 m; draft 4.8 m.

Type: Cargo ship. MMSI: 538003096.

Date/timePositionNaut miles runAvg speedWind from/ knotsBaromVisibWave heightAir tempDewpointWater temp
2017-Aug-20 15:32N 31°04' E 122°05'113.4
2017-Aug-20 15:29N 31°04' E 122°04'510.0
2017-Aug-20 15:00N 31°06' E 121°59'510.1
2017-Aug-20 14:30N 31°08' E 121°54'510.1
2017-Aug-20 14:00N 31°12' E 121°49'5 9.8
2017-Aug-20 13:30N 31°16' E 121°46'5 9.9
2017-Aug-20 13:00N 31°19' E 121°42'510.2
2017-Aug-20 12:30N 31°22' E 121°37'611.7
2017-Aug-20 12:00N 31°25' E 121°31'510.1
2017-Aug-20 11:30N 31°28' E 121°27'611.6
2017-Aug-20 11:00N 31°32' E 121°21'612.9
2017-Aug-20 10:30N 31°37' E 121°16'713.6
2017-Aug-20 10:00N 31°41' E 121°10'713.6
2017-Aug-20 09:30N 31°45' E 121°04'712.3
2017-Aug-20 08:58N 31°48' E 120°57'1 0.1
2017-Aug-20 00:03N 31°49' E 120°57'0 0.0
2017-Aug-19 23:57N 31°49' E 120°57'0 0.0
2017-Aug-19 18:39N 31°49' E 120°57'0 0.0
2017-Aug-19 18:27N 31°49' E 120°57'  
2017-Aug-16 10:24N 31°49' E 120°57'  
2017-Aug-14 01:45N 31°46' E 121°03'3 9.7
2017-Aug-14 01:28N 31°45' E 121°06'4 9.7
2017-Aug-14 01:00N 31°42' E 121°10'5 9.4
2017-Aug-14 00:30N 31°39' E 121°14'4 7.6
2017-Aug-14 00:00N 31°37' E 121°18'1 1.3
2017-Aug-13 23:29N 31°36' E 121°18'0 0.0
2017-Aug-13 22:59N 31°36' E 121°18'0 0.3
2017-Aug-13 22:29N 31°36' E 121°18'0 0.2
2017-Aug-13 21:59N 31°36' E 121°18'0 0.1
2017-Aug-13 21:29N 31°36' E 121°18'0 0.0
2017-Aug-13 20:59N 31°36' E 121°18'0 0.0
2017-Aug-13 20:29N 31°36' E 121°18'0 0.0
2017-Aug-13 19:32N 31°36' E 121°18'0 0.0
2017-Aug-13 19:29N 31°36' E 121°18'0 0.0
2017-Aug-13 18:59N 31°36' E 121°18'0 0.2
2017-Aug-13 18:20N 31°37' E 121°18'0 0.4
2017-Aug-13 17:59N 31°36' E 121°18'0 0.2
2017-Aug-13 17:23N 31°36' E 121°18'0 0.0
2017-Aug-13 16:47N 31°36' E 121°18'0 0.1
2017-Aug-13 16:29N 31°36' E 121°18'0 0.0
2017-Aug-13 15:53N 31°36' E 121°18'0 0.1
2017-Aug-13 15:29N 31°36' E 121°18'0 0.1
2017-Aug-13 14:44N 31°36' E 121°18'0 0.0
2017-Aug-13 14:29N 31°36' E 121°18'0 0.0
2017-Aug-13 13:59N 31°36' E 121°18'0 0.0
2017-Aug-13 13:29N 31°36' E 121°18'0 0.1
2017-Aug-13 12:59N 31°36' E 121°18'0 0.0
2017-Aug-13 12:11N 31°36' E 121°18'0 0.2
2017-Aug-13 11:56N 31°36' E 121°18'0 0.0
2017-Aug-13 11:08N 31°36' E 121°18'0 0.4
2017-Aug-13 10:59N 31°36' E 121°18'0 0.2
2017-Aug-13 10:29N 31°36' E 121°18'0 0.2
2017-Aug-13 09:47N 31°36' E 121°18'0 0.1
2017-Aug-13 09:23N 31°36' E 121°18'0 0.0
2017-Aug-13 08:59N 31°36' E 121°18'0 0.0
2017-Aug-13 08:29N 31°37' E 121°18'0 0.0
2017-Aug-13 07:56N 31°36' E 121°18'0 0.1
2017-Aug-13 07:29N 31°37' E 121°18'0 0.1
2017-Aug-13 06:56N 31°36' E 121°18'0 0.2
2017-Aug-13 06:23N 31°37' E 121°18'0 0.5
2017-Aug-13 05:59N 31°36' E 121°18'0 0.1
2017-Aug-13 05:23N 31°36' E 121°18'0 0.0
2017-Aug-13 04:59N 31°36' E 121°18'0 0.0
2017-Aug-13 04:29N 31°36' E 121°18'0 0.1
2017-Aug-13 03:47N 31°36' E 121°18'0 0.2
2017-Aug-13 03:29N 31°36' E 121°18'0 0.1
2017-Aug-13 02:59N 31°36' E 121°18'0 0.0
2017-Aug-13 02:29N 31°36' E 121°18'0 0.0
2017-Aug-13 01:53N 31°36' E 121°18'0 0.0
2017-Aug-13 01:29N 31°36' E 121°18'0 0.1
2017-Aug-13 00:59N 31°36' E 121°18'0 0.0
2017-Aug-13 00:29N 31°36' E 121°18'0 0.0
2017-Aug-12 23:44N 31°36' E 121°18'0 0.0
2017-Aug-12 22:32N 31°36' E 121°18'0 0.1
2017-Aug-12 22:29N 31°36' E 121°18'0 0.3
2017-Aug-12 21:53N 31°37' E 121°18'0 0.3
2017-Aug-12 21:20N 31°37' E 121°18'0 0.0
2017-Aug-12 20:59N 31°36' E 121°18'0 0.0
2017-Aug-12 20:17N 31°36' E 121°18'0 0.0
2017-Aug-12 19:59N 31°36' E 121°18'0 0.0
2017-Aug-12 19:23N 31°36' E 121°18'0 0.1
2017-Aug-12 18:56N 31°37' E 121°18'0 0.0
2017-Aug-12 18:14N 31°36' E 121°18'0 0.0
2017-Aug-12 17:59N 31°37' E 121°18'0 0.4
2017-Aug-12 17:20N 31°36' E 121°18'0 0.2
2017-Aug-12 16:50N 31°36' E 121°18'0 0.0
2017-Aug-12 16:26N 31°36' E 121°18'0 0.0
2017-Aug-12 15:44N 31°36' E 121°18'0 0.0
2017-Aug-12 15:26N 31°36' E 121°18'0 0.0
2017-Aug-12 14:56N 31°36' E 121°18'0 0.1
2017-Aug-12 14:26N 31°36' E 121°18'0 0.1
2017-Aug-12 13:53N 31°36' E 121°18'0 0.0
2017-Aug-12 13:29N 31°36' E 121°18'0 0.2
2017-Aug-12 12:53N 31°36' E 121°18'0 0.0
2017-Aug-12 12:29N 31°36' E 121°18'0 0.1
2017-Aug-12 11:56N 31°36' E 121°18'0 0.0
2017-Aug-12 11:29N 31°36' E 121°18'0 0.8
2017-Aug-12 11:00N 31°36' E 121°18'4 7.4
2017-Aug-12 10:30N 31°33' E 121°20'510.1
2017-Aug-12 10:00N 31°30' E 121°25'510.0
2017-Aug-12 09:30N 31°26' E 121°29'3 6.7
2017-Aug-12 09:00N 31°24' E 121°33'4 8.1
2017-Aug-12 08:30N 31°22' E 121°37'510.3
2017-Aug-12 08:00N 31°20' E 121°42'5 9.6
2017-Aug-12 07:30N 31°18' E 121°47'5 9.2
2017-Aug-12 07:00N 31°16' E 121°52'510.1
2017-Aug-12 06:30N 31°15' E 121°58'5 9.6
2017-Aug-12 06:00N 31°14' E 122°03'5 9.5
2017-Aug-12 05:30N 31°12' E 122°08'612.2
2017-Aug-12 05:00N 31°09' E 122°14'611.7
2017-Aug-12 04:30N 31°06' E 122°20'611.2
2017-Aug-12 04:00N 31°07' E 122°27'6 9.3
2017-Aug-12 03:21N 31°07' E 122°34'3 6.7
2017-Aug-12 02:51N 31°07' E 122°38'2 6.9
2017-Aug-12 02:30N 31°08' E 122°41'4 6.6
2017-Aug-12 01:54N 31°08' E 122°45'2 0.9
2017-Aug-11 23:58N 31°09' E 122°47'0 0.0
2017-Aug-11 22:16N 31°09' E 122°47'0 0.0
2017-Aug-11 21:49N 31°09' E 122°47'0 0.1
2017-Aug-11 21:22N 31°09' E 122°47'0 0.2
2017-Aug-11 20:58N 31°09' E 122°47'0 0.1
2017-Aug-11 20:25N 31°09' E 122°47'0 0.1
2017-Aug-11 19:10N 31°09' E 122°47'0 0.1
2017-Aug-11 16:49N 31°09' E 122°46'0 0.0
2017-Aug-11 07:58N 31°09' E 122°47'0 0.2
2017-Aug-11 07:10N 31°09' E 122°47'0 0.2
2017-Aug-11 06:55N 31°09' E 122°47'0 0.1
2017-Aug-11 06:22N 31°09' E 122°47'0 0.1
2017-Aug-11 05:55N 31°09' E 122°46'0 0.1
2017-Aug-11 05:22N 31°09' E 122°46'0 0.1
2017-Aug-11 04:58N 31°09' E 122°46'0 0.0
2017-Aug-11 04:13N 31°09' E 122°46'0 0.1
2017-Aug-11 03:43N 31°09' E 122°46'0 0.0
2017-Aug-11 03:07N 31°09' E 122°46'0 0.0
2017-Aug-11 02:55N 31°09' E 122°46'0 0.2
2017-Aug-11 02:28N 31°09' E 122°46'0 0.1
2017-Aug-11 01:58N 31°09' E 122°46'0 0.1
2017-Aug-11 01:19N 31°09' E 122°46'0 0.1
2017-Aug-10 23:07N 31°09' E 122°47'0 0.0
2017-Aug-10 22:58N 31°09' E 122°47'0 0.0
2017-Aug-10 22:28N 31°09' E 122°47'0 0.1
2017-Aug-10 21:58N 31°09' E 122°47'0 0.0
2017-Aug-10 21:28N 31°09' E 122°47'0 0.0
2017-Aug-10 20:49N 31°09' E 122°47'0 0.1
2017-Aug-10 20:28N 31°09' E 122°47'0 0.1
2017-Aug-10 19:16N 31°09' E 122°47'0 0.1
2017-Aug-10 18:55N 31°09' E 122°47'0 0.1
2017-Aug-10 16:28N 31°09' E 122°46'  
Track history (hours):
 
Tides and Currents Weather Stations Pressure Air Temp Water Temp Dewpoint Dewpoint Depression Visibility Wind Speed Wind Dir Waves Ship Positions

Thamesteel1

Last reported at 2017-Aug-20 15:32 UTC. Time now 2017-Aug-21 14:07 UTC.
Position N 31°04' E 122°05'.

Length 89 m; draft 4.8 m.

Type: Cargo ship. MMSI: 538003096.

Date/timePositionNaut miles runAvg speedWind from/ knotsBaromVisibWave heightAir tempDewpointWater temp
2017-Aug-20 15:32N 31°04' E 122°05'113.4
2017-Aug-20 15:29N 31°04' E 122°04'510.0
2017-Aug-20 15:00N 31°06' E 121°59'510.1
2017-Aug-20 14:30N 31°08' E 121°54'510.1
2017-Aug-20 14:00N 31°12' E 121°49'5 9.8
2017-Aug-20 13:30N 31°16' E 121°46'5 9.9
2017-Aug-20 13:00N 31°19' E 121°42'510.2
2017-Aug-20 12:30N 31°22' E 121°37'611.7
2017-Aug-20 12:00N 31°25' E 121°31'510.1
2017-Aug-20 11:30N 31°28' E 121°27'611.6
2017-Aug-20 11:00N 31°32' E 121°21'612.9
2017-Aug-20 10:30N 31°37' E 121°16'713.6
2017-Aug-20 10:00N 31°41' E 121°10'713.6
2017-Aug-20 09:30N 31°45' E 121°04'712.3
2017-Aug-20 08:58N 31°48' E 120°57'1 0.1
2017-Aug-20 00:03N 31°49' E 120°57'0 0.0
2017-Aug-19 23:57N 31°49' E 120°57'0 0.0
2017-Aug-19 18:39N 31°49' E 120°57'0 0.0
2017-Aug-19 18:27N 31°49' E 120°57'  
2017-Aug-16 10:24N 31°49' E 120°57'  
2017-Aug-14 01:45N 31°46' E 121°03'3 9.7
2017-Aug-14 01:28N 31°45' E 121°06'4 9.7
2017-Aug-14 01:00N 31°42' E 121°10'5 9.4
2017-Aug-14 00:30N 31°39' E 121°14'4 7.6
2017-Aug-14 00:00N 31°37' E 121°18'1 1.3
2017-Aug-13 23:29N 31°36' E 121°18'0 0.0
2017-Aug-13 22:59N 31°36' E 121°18'0 0.3
2017-Aug-13 22:29N 31°36' E 121°18'0 0.2
2017-Aug-13 21:59N 31°36' E 121°18'0 0.1
2017-Aug-13 21:29N 31°36' E 121°18'0 0.0
2017-Aug-13 20:59N 31°36' E 121°18'0 0.0
2017-Aug-13 20:29N 31°36' E 121°18'0 0.0
2017-Aug-13 19:32N 31°36' E 121°18'0 0.0
2017-Aug-13 19:29N 31°36' E 121°18'0 0.0
2017-Aug-13 18:59N 31°36' E 121°18'0 0.2
2017-Aug-13 18:20N 31°37' E 121°18'0 0.4
2017-Aug-13 17:59N 31°36' E 121°18'0 0.2
2017-Aug-13 17:23N 31°36' E 121°18'0 0.0
2017-Aug-13 16:47N 31°36' E 121°18'0 0.1
2017-Aug-13 16:29N 31°36' E 121°18'0 0.0
2017-Aug-13 15:53N 31°36' E 121°18'0 0.1
2017-Aug-13 15:29N 31°36' E 121°18'0 0.1
2017-Aug-13 14:44N 31°36' E 121°18'0 0.0
2017-Aug-13 14:29N 31°36' E 121°18'0 0.0
2017-Aug-13 13:59N 31°36' E 121°18'0 0.0
2017-Aug-13 13:29N 31°36' E 121°18'0 0.1
2017-Aug-13 12:59N 31°36' E 121°18'0 0.0
2017-Aug-13 12:11N 31°36' E 121°18'0 0.2
2017-Aug-13 11:56N 31°36' E 121°18'0 0.0
2017-Aug-13 11:08N 31°36' E 121°18'0 0.4
2017-Aug-13 10:59N 31°36' E 121°18'0 0.2
2017-Aug-13 10:29N 31°36' E 121°18'0 0.2
2017-Aug-13 09:47N 31°36' E 121°18'0 0.1
2017-Aug-13 09:23N 31°36' E 121°18'0 0.0
2017-Aug-13 08:59N 31°36' E 121°18'0 0.0
2017-Aug-13 08:29N 31°37' E 121°18'0 0.0
2017-Aug-13 07:56N 31°36' E 121°18'0 0.1
2017-Aug-13 07:29N 31°37' E 121°18'0 0.1
2017-Aug-13 06:56N 31°36' E 121°18'0 0.2
2017-Aug-13 06:23N 31°37' E 121°18'0 0.5
2017-Aug-13 05:59N 31°36' E 121°18'0 0.1
2017-Aug-13 05:23N 31°36' E 121°18'0 0.0
2017-Aug-13 04:59N 31°36' E 121°18'0 0.0
2017-Aug-13 04:29N 31°36' E 121°18'0 0.1
2017-Aug-13 03:47N 31°36' E 121°18'0 0.2
2017-Aug-13 03:29N 31°36' E 121°18'0 0.1
2017-Aug-13 02:59N 31°36' E 121°18'0 0.0
2017-Aug-13 02:29N 31°36' E 121°18'0 0.0
2017-Aug-13 01:53N 31°36' E 121°18'0 0.0
2017-Aug-13 01:29N 31°36' E 121°18'0 0.1
2017-Aug-13 00:59N 31°36' E 121°18'0 0.0
2017-Aug-13 00:29N 31°36' E 121°18'0 0.0
2017-Aug-12 23:44N 31°36' E 121°18'0 0.0
2017-Aug-12 22:32N 31°36' E 121°18'0 0.1
2017-Aug-12 22:29N 31°36' E 121°18'0 0.3
2017-Aug-12 21:53N 31°37' E 121°18'0 0.3
2017-Aug-12 21:20N 31°37' E 121°18'0 0.0
2017-Aug-12 20:59N 31°36' E 121°18'0 0.0
2017-Aug-12 20:17N 31°36' E 121°18'0 0.0
2017-Aug-12 19:59N 31°36' E 121°18'0 0.0
2017-Aug-12 19:23N 31°36' E 121°18'0 0.1
2017-Aug-12 18:56N 31°37' E 121°18'0 0.0
2017-Aug-12 18:14N 31°36' E 121°18'0 0.0
2017-Aug-12 17:59N 31°37' E 121°18'0 0.4
2017-Aug-12 17:20N 31°36' E 121°18'0 0.2
2017-Aug-12 16:50N 31°36' E 121°18'0 0.0
2017-Aug-12 16:26N 31°36' E 121°18'0 0.0
2017-Aug-12 15:44N 31°36' E 121°18'0 0.0
2017-Aug-12 15:26N 31°36' E 121°18'0 0.0
2017-Aug-12 14:56N 31°36' E 121°18'0 0.1
2017-Aug-12 14:26N 31°36' E 121°18'0 0.1
2017-Aug-12 13:53N 31°36' E 121°18'0 0.0
2017-Aug-12 13:29N 31°36' E 121°18'0 0.2
2017-Aug-12 12:53N 31°36' E 121°18'0 0.0
2017-Aug-12 12:29N 31°36' E 121°18'0 0.1
2017-Aug-12 11:56N 31°36' E 121°18'0 0.0
2017-Aug-12 11:29N 31°36' E 121°18'0 0.8
2017-Aug-12 11:00N 31°36' E 121°18'4 7.4
2017-Aug-12 10:30N 31°33' E 121°20'510.1
2017-Aug-12 10:00N 31°30' E 121°25'510.0
2017-Aug-12 09:30N 31°26' E 121°29'3 6.7
2017-Aug-12 09:00N 31°24' E 121°33'4 8.1
2017-Aug-12 08:30N 31°22' E 121°37'510.3
2017-Aug-12 08:00N 31°20' E 121°42'5 9.6
2017-Aug-12 07:30N 31°18' E 121°47'5 9.2
2017-Aug-12 07:00N 31°16' E 121°52'510.1
2017-Aug-12 06:30N 31°15' E 121°58'5 9.6
2017-Aug-12 06:00N 31°14' E 122°03'5 9.5
2017-Aug-12 05:30N 31°12' E 122°08'612.2
2017-Aug-12 05:00N 31°09' E 122°14'611.7
2017-Aug-12 04:30N 31°06' E 122°20'611.2
2017-Aug-12 04:00N 31°07' E 122°27'6 9.3
2017-Aug-12 03:21N 31°07' E 122°34'3 6.7
2017-Aug-12 02:51N 31°07' E 122°38'2 6.9
2017-Aug-12 02:30N 31°08' E 122°41'4 6.6
2017-Aug-12 01:54N 31°08' E 122°45'2 0.9
2017-Aug-11 23:58N 31°09' E 122°47'0 0.0
2017-Aug-11 22:16N 31°09' E 122°47'0 0.0
2017-Aug-11 21:49N 31°09' E 122°47'0 0.1
2017-Aug-11 21:22N 31°09' E 122°47'0 0.2
2017-Aug-11 20:58N 31°09' E 122°47'0 0.1
2017-Aug-11 20:25N 31°09' E 122°47'0 0.1
2017-Aug-11 19:10N 31°09' E 122°47'0 0.1
2017-Aug-11 16:49N 31°09' E 122°46'0 0.0
2017-Aug-11 07:58N 31°09' E 122°47'0 0.2
2017-Aug-11 07:10N 31°09' E 122°47'0 0.2
2017-Aug-11 06:55N 31°09' E 122°47'0 0.1
2017-Aug-11 06:22N 31°09' E 122°47'0 0.1
2017-Aug-11 05:55N 31°09' E 122°46'0 0.1
2017-Aug-11 05:22N 31°09' E 122°46'0 0.1
2017-Aug-11 04:58N 31°09' E 122°46'0 0.0
2017-Aug-11 04:13N 31°09' E 122°46'0 0.1
2017-Aug-11 03:43N 31°09' E 122°46'0 0.0
2017-Aug-11 03:07N 31°09' E 122°46'0 0.0
2017-Aug-11 02:55N 31°09' E 122°46'0 0.2
2017-Aug-11 02:28N 31°09' E 122°46'0 0.1
2017-Aug-11 01:58N 31°09' E 122°46'0 0.1
2017-Aug-11 01:19N 31°09' E 122°46'0 0.1
2017-Aug-10 23:07N 31°09' E 122°47'0 0.0
2017-Aug-10 22:58N 31°09' E 122°47'0 0.0
2017-Aug-10 22:28N 31°09' E 122°47'0 0.1
2017-Aug-10 21:58N 31°09' E 122°47'0 0.0
2017-Aug-10 21:28N 31°09' E 122°47'0 0.0
2017-Aug-10 20:49N 31°09' E 122°47'0 0.1
2017-Aug-10 20:28N 31°09' E 122°47'0 0.1
2017-Aug-10 19:16N 31°09' E 122°47'0 0.1
2017-Aug-10 18:55N 31°09' E 122°47'0 0.1
2017-Aug-10 16:28N 31°09' E 122°46'  

Dump ship's entire track history